Time;durP1;ratioP1;P1;durP2;ratioP2;P2;SDS_P1;SDS_P2;PMS_P1;PMS_P2;Temp;Humidity;BMP_temperature;BMP_pressure;BME280_temperature;BME280_humidity;BME280_pressure;Samples;Min_cycle;Max_cycle;Signal;HPM_P1;HPM_P2
2022/12/25 00:00:32;;;;;;;;;;;;;;;10.02;70.35;101311.97;5014557;28;20389;-74
2022/12/25 00:02:57;;;;;;;;;;;;;;;10.02;70.24;101319.25;5014189;28;19925;-74
2022/12/25 00:05:23;;;;;;;;;;;;;;;10.01;70.23;101315.75;5013906;28;19921;-74
2022/12/25 00:07:48;;;;;;;;;;;;;;;10.01;70.16;101317.63;5012917;28;19978;-73
2022/12/25 00:10:13;;;;;;;;;;;;;;;10.02;70.09;101319.25;5014161;28;19921;-73
2022/12/25 00:12:39;;;;;;;;;;;;;;;10.02;70.19;101319.25;5014140;28;19921;-73
2022/12/25 00:15:04;;;;;;;;;;;;;;;10.00;70.29;101314.06;5014029;28;20000;-74
2022/12/25 00:17:29;;;;;;;;;;;;;;;10.01;70.12;101315.75;5012836;28;19999;-73
2022/12/25 00:19:54;;;;;;;;;;;;;;;10.01;70.16;101312.22;4996685;28;20354;-73
2022/12/25 00:22:20;;;;;;;;;;;;;;;10.00;70.17;101307.84;5014239;28;19913;-74
2022/12/25 00:24:48;;;;;;;;;;;;;;;10.01;70.23;101306.81;5012797;28;19976;-79
2022/12/25 00:27:14;;;;;;;;;;;;;;;10.00;70.23;101313.25;5013981;28;19917;-73
2022/12/25 00:29:39;;;;;;;;;;;;;;;10.00;70.16;101314.06;5012997;28;20416;-73
2022/12/25 00:32:04;;;;;;;;;;;;;;;10.01;70.33;101306.81;4998931;28;19974;-74
2022/12/25 00:34:30;;;;;;;;;;;;;;;10.01;70.16;101312.22;5016241;28;19976;-74
2022/12/25 00:36:55;;;;;;;;;;;;;;;10.00;70.21;101313.25;5017850;28;19952;-74
2022/12/25 00:39:20;;;;;;;;;;;;;;;10.00;70.14;101313.25;5016790;28;19917;-73
2022/12/25 00:44:30;;;;;;;;;;;;;;;9.99;70.27;101309.72;5017772;28;19964;-74
2022/12/25 00:46:55;;;;;;;;;;;;;;;9.99;70.20;101311.63;5016938;28;19922;-73
2022/12/25 00:49:21;;;;;;;;;;;;;;;9.99;70.17;101306.22;5016622;28;20273;-73
2022/12/25 00:51:47;;;;;;;;;;;;;;;9.99;70.32;101298.94;5015030;28;19992;-79
2022/12/25 00:54:12;;;;;;;;;;;;;;;9.99;70.33;101290.03;5016132;28;19913;-73
2022/12/25 00:56:38;;;;;;;;;;;;;;;9.98;70.17;101286.50;5014968;28;19996;-73
2022/12/25 00:59:04;;;;;;;;;;;;;;;9.99;70.25;101287.31;5015025;28;19918;-73
2022/12/25 01:01:29;;;;;;;;;;;;;;;9.97;70.20;101282.16;5016679;28;20008;-73
2022/12/25 01:03:54;;;;;;;;;;;;;;;9.98;70.12;101297.31;5015195;28;19918;-73
2022/12/25 01:06:20;;;;;;;;;;;;;;;9.98;70.08;101289.22;5016190;28;19967;-74
2022/12/25 01:11:29;;;;;;;;;;;;;;;9.97;70.21;101279.44;5016153;28;20329;-75
2022/12/25 01:13:54;;;;;;;;;;;;;;;9.97;70.38;101284.84;5015818;28;19913;-74
2022/12/25 01:16:20;;;;;;;;;;;;;;;9.98;70.13;101291.91;5015583;28;19924;-73
2022/12/25 01:18:45;;;;;;;;;;;;;;;9.97;70.24;101290.25;5015013;28;19964;-73
2022/12/25 01:21:12;;;;;;;;;;;;;;;9.98;70.40;101286.50;5015810;28;19913;-73
2022/12/25 01:23:37;;;;;;;;;;;;;;;9.97;70.22;101296.47;5014583;28;19914;-73
2022/12/25 01:26:03;;;;;;;;;;;;;;;9.97;70.28;101301.03;5016236;28;19975;-73
2022/12/25 01:28:28;;;;;;;;;;;;;;;9.99;70.33;101314.31;5014537;28;19913;-73
2022/12/25 01:30:53;;;;;;;;;;;;;;;9.98;70.23;101316.19;5014981;28;20338;-74
2022/12/25 01:33:19;;;;;;;;;;;;;;;9.99;70.15;101306.22;5014669;28;20000;-73
2022/12/25 01:35:44;;;;;;;;;;;;;;;9.99;70.22;101315.13;5015627;28;19979;-75
2022/12/25 01:38:09;;;;;;;;;;;;;;;9.98;70.49;101308.09;5014735;28;19917;-73
2022/12/25 01:40:34;;;;;;;;;;;;;;;9.98;70.27;101313.50;5014154;28;19918;-73
2022/12/25 01:43:00;;;;;;;;;;;;;;;9.99;70.31;101319.72;4997534;28;19917;-73
2022/12/25 01:45:30;;;;;;;;;;;;;;;9.99;70.26;101319.72;5015545;28;19963;-73
2022/12/25 01:47:56;;;;;;;;;;;;;;;9.98;70.35;101324.28;4971868;28;1255718;-73
2022/12/25 01:50:21;;;;;;;;;;;;;;;9.99;70.47;101322.41;5017051;28;19922;-73
2022/12/25 01:52:47;;;;;;;;;;;;;;;9.99;70.23;101325.13;5015290;28;19960;-73
2022/12/25 01:55:12;;;;;;;;;;;;;;;9.98;70.35;101335.09;5015558;28;19917;-73
2022/12/25 01:57:39;;;;;;;;;;;;;;;9.99;70.23;101338.59;5016367;28;20425;-73
2022/12/25 02:00:05;;;;;;;;;;;;;;;9.99;70.24;101344.81;5015069;28;19921;-73
2022/12/25 02:02:30;;;;;;;;;;;;;;;9.99;70.38;101344.81;5016642;28;19914;-73
2022/12/25 02:05:04;;;;;;;;;;;;;;;9.99;70.32;101346.69;5016437;28;20021;-77
2022/12/25 02:07:31;;;;;;;;;;;;;;;9.99;70.26;101344.00;5015395;28;19968;-74
2022/12/25 02:09:56;;;;;;;;;;;;;;;9.97;70.20;101345.03;5014820;28;19913;-78
2022/12/25 02:12:26;;;;;;;;;;;;;;;9.98;70.23;101345.88;5015429;28;19920;-74
2022/12/25 02:14:54;;;;;;;;;;;;;;;9.99;70.24;101352.91;5014832;28;19913;-75
2022/12/25 02:17:26;;;;;;;;;;;;;;;9.99;70.35;101352.09;5015951;28;19917;-75
2022/12/25 02:20:09;;;;;;;;;;;;;;;9.99;70.23;101347.53;5015684;28;20012;-74
2022/12/25 02:22:37;;;;;;;;;;;;;;;9.99;70.31;101338.59;5016032;28;19917;-74
2022/12/25 02:25:12;;;;;;;;;;;;;;;9.99;70.40;101335.91;5014836;28;20266;-75
2022/12/25 02:27:56;;;;;;;;;;;;;;;9.99;70.42;101341.31;5014871;28;20312;-74
2022/12/25 02:30:21;;;;;;;;;;;;;;;9.97;70.17;101342.34;5015718;28;19913;-74
2022/12/25 02:34:01;;;;;;;;;;;;;;;9.99;70.25;101341.31;5014711;28;19967;-74
2022/12/25 02:35:46;;;;;;;;;;;;;;;9.99;70.40;101331.31;5015931;28;20254;-74
2022/12/25 02:38:14;;;;;;;;;;;;;;;9.99;70.35;101323.22;5014198;28;19914;-74
2022/12/25 02:40:42;;;;;;;;;;;;;;;10.00;70.37;101321.34;5014382;28;20487;-74
2022/12/25 03:08:06;;;;;;;;;;;;;;;9.97;70.28;101255.16;5015402;28;19959;-74
2022/12/25 03:13:18;;;;;;;;;;;;;;;9.99;70.40;101246.84;5015211;28;19960;-74
2022/12/25 03:18:28;;;;;;;;;;;;;;;9.98;70.26;101243.31;5015516;28;19920;-74
2022/12/25 03:31:10;;;;;;;;;;;;;;;9.99;70.46;101228.78;5014986;28;19967;-74
2022/12/25 03:32:21;;;;;;;;;;;;;;;9.97;70.41;101245.19;5014297;28;19913;-75
2022/12/25 04:36:37;;;;;;;;;;;;;;;9.96;70.40;101232.75;5012960;28;20019;-74
2022/12/25 04:39:02;;;;;;;;;;;;;;;9.96;70.62;101237.31;5013910;28;19914;-75
2022/12/25 04:41:27;;;;;;;;;;;;;;;9.96;70.38;101232.75;5012540;28;19983;-74
2022/12/25 04:43:52;;;;;;;;;;;;;;;9.96;70.46;101223.84;5012879;28;20008;-74
2022/12/25 04:46:17;;;;;;;;;;;;;;;9.96;70.49;101216.56;5014525;28;19925;-74
2022/12/25 04:48:43;;;;;;;;;;;;;;;9.96;70.49;101213.84;5013584;28;19917;-74
2022/12/25 04:51:16;;;;;;;;;;;;;;;9.96;70.62;101224.66;5012787;28;19918;-75
2022/12/25 04:53:43;;;;;;;;;;;;;;;9.96;70.49;101227.34;5012605;28;19913;-75
2022/12/25 04:56:08;;;;;;;;;;;;;;;9.96;70.57;101226.53;5012527;28;20010;-75
2022/12/25 04:58:34;;;;;;;;;;;;;;;9.97;70.48;101233.56;5012484;28;19960;-74
2022/12/25 05:01:00;;;;;;;;;;;;;;;9.95;70.60;101239.22;5013414;28;19929;-74
2022/12/25 05:03:25;;;;;;;;;;;;;;;9.96;70.63;101235.44;5012520;28;19917;-74
2022/12/25 05:05:50;;;;;;;;;;;;;;;9.97;70.45;101225.47;5012360;28;20315;-74
2022/12/25 05:08:15;;;;;;;;;;;;;;;9.96;70.61;101213.03;5012742;28;20008;-75
2022/12/25 05:10:41;;;;;;;;;;;;;;;9.96;70.44;101213.84;5012197;28;19924;-74
2022/12/25 05:13:06;;;;;;;;;;;;;;;9.97;70.62;101220.06;5013639;28;20277;-74
2022/12/25 05:15:31;;;;;;;;;;;;;;;9.96;70.41;101219.25;5012457;28;20312;-73
2022/12/25 05:17:56;;;;;;;;;;;;;;;9.96;70.35;101210.34;5015367;28;19963;-75
2022/12/25 05:20:21;;;;;;;;;;;;;;;9.96;70.53;101202.25;5016836;28;19917;-74
2022/12/25 05:22:47;;;;;;;;;;;;;;;9.96;70.69;101197.66;5015996;28;20297;-76
2022/12/25 05:25:12;;;;;;;;;;;;;;;9.96;70.60;101188.75;5015869;28;19975;-74
2022/12/25 05:27:37;;;;;;;;;;;;;;;9.95;70.39;101185.22;5017565;28;19924;-74
2022/12/25 05:30:03;;;;;;;;;;;;;;;9.95;70.52;101174.44;5015841;28;20335;-75
2022/12/25 05:32:28;;;;;;;;;;;;;;;9.96;70.38;101176.06;5015616;28;19925;-74
2022/12/25 05:34:53;;;;;;;;;;;;;;;9.96;70.43;101170.69;4999190;28;19917;-74
2022/12/25 05:37:18;;;;;;;;;;;;;;;9.95;70.51;101176.28;5015497;28;20517;-75
2022/12/25 05:39:44;;;;;;;;;;;;;;;9.96;70.58;101183.34;5016546;28;20385;-76
2022/12/25 05:42:09;;;;;;;;;;;;;;;9.96;70.53;101177.97;5016748;28;19983;-75
2022/12/25 05:44:34;;;;;;;;;;;;;;;9.95;70.51;101185.22;5016654;28;20004;-75
2022/12/25 05:46:59;;;;;;;;;;;;;;;9.94;70.45;101180.88;5015331;28;19921;-74
2022/12/25 05:49:25;;;;;;;;;;;;;;;9.96;70.53;101181.47;5015326;28;19929;-74
2022/12/25 05:51:51;;;;;;;;;;;;;;;9.96;70.39;101177.97;5015576;28;19917;-74
2022/12/25 05:54:16;;;;;;;;;;;;;;;9.96;70.63;101173.38;5015928;28;19929;-79
2022/12/25 05:56:41;;;;;;;;;;;;;;;9.96;70.57;101159.88;5014961;28;20016;-74
2022/12/25 05:59:06;;;;;;;;;;;;;;;9.96;70.57;101157.19;5016446;28;19913;-74
2022/12/25 06:01:32;;;;;;;;;;;;;;;9.95;70.57;101158.25;5015347;28;20350;-74
2022/12/25 06:03:57;;;;;;;;;;;;;;;9.96;70.51;101159.88;5015108;28;19913;-74
2022/12/25 06:06:22;;;;;;;;;;;;;;;9.96;70.62;101159.88;5014942;28;19968;-74
2022/12/25 06:08:47;;;;;;;;;;;;;;;9.97;70.60;101156.13;5016222;28;20416;-75
2022/12/25 06:11:13;;;;;;;;;;;;;;;9.97;70.48;101150.72;5015162;28;19924;-74
2022/12/25 06:13:38;;;;;;;;;;;;;;;9.97;70.57;101148.03;5015999;28;19928;-74
2022/12/25 06:16:05;;;;;;;;;;;;;;;9.97;70.69;101145.31;5016988;28;19919;-78
2022/12/25 06:18:30;;;;;;;;;;;;;;;9.97;70.34;101137.22;5016008;28;19996;-74
2022/12/25 06:20:55;;;;;;;;;;;;;;;9.99;70.57;101128.09;5016050;28;19955;-74
2022/12/25 06:23:20;;;;;;;;;;;;;;;9.97;70.45;101131.84;5015300;28;19939;-79
2022/12/25 06:25:46;;;;;;;;;;;;;;;9.98;70.52;101135.38;5014712;28;19969;-74
2022/12/25 06:28:11;;;;;;;;;;;;;;;9.97;70.38;101123.72;5014286;28;20063;-74
2022/12/25 06:30:36;;;;;;;;;;;;;;;9.99;70.47;101114.59;5013754;28;19964;-74
2022/12/25 06:33:02;;;;;;;;;;;;;;;9.99;70.53;101107.31;5014530;28;19983;-74
2022/12/25 06:35:27;;;;;;;;;;;;;;;9.99;70.43;101101.94;4998060;28;19917;-74
2022/12/25 06:37:52;;;;;;;;;;;;;;;9.99;70.61;101101.94;5014482;28;19913;-74
2022/12/25 06:40:17;;;;;;;;;;;;;;;9.99;70.37;101099.22;5015641;28;20337;-77
2022/12/25 06:42:43;;;;;;;;;;;;;;;9.99;70.54;101101.94;5014713;28;20259;-74
2022/12/25 06:45:08;;;;;;;;;;;;;;;10.00;70.49;101092.75;5014507;28;20019;-75
2022/12/25 06:47:33;;;;;;;;;;;;;;;9.99;70.43;101076.81;5016092;28;20301;-74
2022/12/25 06:49:59;;;;;;;;;;;;;;;10.00;70.40;101063.06;4997933;28;19925;-75
2022/12/25 06:52:24;;;;;;;;;;;;;;;10.00;70.51;101064.97;5015404;28;19920;-74
2022/12/25 06:54:50;;;;;;;;;;;;;;;10.00;70.69;101068.47;5014126;28;19922;-74
2022/12/25 06:57:16;;;;;;;;;;;;;;;10.01;70.65;101077.41;5014208;28;19917;-74
2022/12/25 06:59:41;;;;;;;;;;;;;;;10.01;70.29;101080.94;5015731;28;19920;-74
2022/12/25 07:02:14;;;;;;;;;;;;;;;10.00;70.52;101076.56;5015504;28;20281;-75
2022/12/25 07:04:40;;;;;;;;;;;;;;;10.01;70.73;101061.22;5013649;28;19923;-75
2022/12/25 07:07:07;;;;;;;;;;;;;;;10.03;70.61;101072.59;5014839;28;19914;-74
2022/12/25 07:09:32;;;;;;;;;;;;;;;10.01;70.63;101078.25;5013719;28;20032;-74
2022/12/25 07:12:02;;;;;;;;;;;;;;;10.01;70.56;101083.63;4997141;28;20409;-74
2022/12/25 07:14:27;;;;;;;;;;;;;;;10.03;70.52;101091.47;5013603;28;19979;-75
2022/12/25 07:16:52;;;;;;;;;;;;;;;10.02;70.53;101100.66;5013659;28;20369;-74
2022/12/25 07:19:18;;;;;;;;;;;;;;;10.03;70.50;101111.22;5015222;28;20305;-74
2022/12/25 07:21:43;;;;;;;;;;;;;;;10.03;70.78;101107.69;5013554;28;19914;-75
2022/12/25 07:24:09;;;;;;;;;;;;;;;10.05;70.46;101110.97;5014844;28;19918;-75
2022/12/25 07:26:34;;;;;;;;;;;;;;;10.04;70.72;101115.56;4997265;28;20374;-74
2022/12/25 07:29:00;;;;;;;;;;;;;;;10.04;70.67;101107.47;5014554;28;19968;-79
2022/12/25 07:31:25;;;;;;;;;;;;;;;10.04;70.53;101091.25;5013817;28;19917;-77
2022/12/25 07:33:53;;;;;;;;;;;;;;;10.06;70.55;101080.25;5013822;28;19917;-73
2022/12/25 07:36:19;;;;;;;;;;;;;;;10.05;70.58;101067.78;5014746;28;19925;-74
2022/12/25 07:38:47;;;;;;;;;;;;;;;10.06;70.62;101083.75;5013597;28;19914;-74
2022/12/25 07:41:12;;;;;;;;;;;;;;;10.05;70.52;101084.81;5014389;28;20349;-73
2022/12/25 07:43:38;;;;;;;;;;;;;;;10.06;70.64;101093.75;5013249;28;19917;-73
2022/12/25 07:46:03;;;;;;;;;;;;;;;10.06;70.57;101105.34;4996717;28;19917;-73
2022/12/25 07:48:29;;;;;;;;;;;;;;;10.07;70.63;101111.56;5012885;28;19921;-78
2022/12/25 07:51:13;;;;;;;;;;;;;;;10.08;70.71;101115.91;5014720;28;19921;-74
2022/12/25 07:53:39;;;;;;;;;;;;;;;10.08;70.53;101124.84;5013313;28;20017;-75
2022/12/25 07:56:05;;;;;;;;;;;;;;;10.07;70.64;101128.59;5014543;28;19948;-74
2022/12/25 07:58:31;;;;;;;;;;;;;;;10.09;70.67;101144.56;5014165;28;19914;-74
2022/12/25 08:01:04;;;;;;;;;;;;;;;10.09;70.66;101155.34;5013067;28;19920;-74
2022/12/25 08:03:29;;;;;;;;;;;;;;;10.09;70.52;101139.16;5013474;28;19967;-77
2022/12/25 08:05:57;;;;;;;;;;;;;;;10.09;70.74;101134.59;5013177;28;20313;-74
2022/12/25 08:08:23;;;;;;;;;;;;;;;10.09;70.85;101142.69;5012966;28;20413;-74
2022/12/25 08:10:48;;;;;;;;;;;;;;;10.09;70.71;101153.47;5013071;28;19948;-74
2022/12/25 08:13:13;;;;;;;;;;;;;;;10.10;70.77;101174.00;5014506;28;19970;-74
2022/12/25 08:15:39;;;;;;;;;;;;;;;10.11;70.74;101175.66;5014347;28;20273;-74
2022/12/25 08:18:04;;;;;;;;;;;;;;;10.11;70.78;101174.84;4996398;28;19925;-74
2022/12/25 08:20:29;;;;;;;;;;;;;;;10.11;70.61;101158.66;5014014;28;19922;-77
2022/12/25 08:22:54;;;;;;;;;;;;;;;10.12;70.84;101165.69;5012454;28;20377;-74
2022/12/25 08:25:20;;;;;;;;;;;;;;;10.12;70.72;101157.59;5012639;28;19921;-74
2022/12/25 08:27:45;;;;;;;;;;;;;;;10.12;70.79;101157.59;5012766;28;19918;-74
2022/12/25 08:30:10;;;;;;;;;;;;;;;10.12;70.69;101157.59;5013889;28;19917;-76
2022/12/25 08:32:36;;;;;;;;;;;;;;;10.12;70.67;101155.72;4996821;28;19917;-74
2022/12/25 08:35:01;;;;;;;;;;;;;;;10.12;70.82;101165.69;5012560;28;19918;-74
2022/12/25 08:37:28;;;;;;;;;;;;;;;10.12;70.91;101171.91;5013133;28;19918;-74
2022/12/25 08:39:54;;;;;;;;;;;;;;;10.13;70.72;101165.47;5013726;28;19935;-74
2022/12/25 08:42:19;;;;;;;;;;;;;;;10.13;70.83;101162.78;5013843;28;20369;-75
2022/12/25 08:44:44;;;;;;;;;;;;;;;10.14;71.10;101166.28;5012067;28;19917;-74
2022/12/25 08:47:09;;;;;;;;;;;;;;;10.13;70.69;101162.78;4996093;28;19926;-75
2022/12/25 08:49:34;;;;;;;;;;;;;;;10.13;70.71;101146.56;5014075;28;19964;-78
2022/12/25 08:52:00;;;;;;;;;;;;;;;10.13;70.85;101141.19;5013881;28;20388;-75
2022/12/25 08:54:25;;;;;;;;;;;;;;;10.13;70.76;101151.13;5017694;28;19925;-74
2022/12/25 08:56:50;;;;;;;;;;;;;;;10.15;70.88;101140.94;5016179;28;20392;-74
2022/12/25 08:59:15;;;;;;;;;;;;;;;10.14;70.86;101139.28;4999872;28;19975;-74
2022/12/25 09:01:41;;;;;;;;;;;;;;;10.15;70.68;101138.22;5016310;28;19924;-74
2022/12/25 09:04:06;;;;;;;;;;;;;;;10.15;70.76;101138.22;5016147;28;19925;-74
2022/12/25 09:06:31;;;;;;;;;;;;;;;10.15;70.70;101130.97;5017321;28;19964;-74
2022/12/25 09:08:56;;;;;;;;;;;;;;;10.16;70.79;101153.41;5017687;28;19917;-74
2022/12/25 09:11:22;;;;;;;;;;;;;;;10.16;70.89;101153.41;5016312;28;20315;-76
2022/12/25 09:13:48;;;;;;;;;;;;;;;10.16;71.03;101161.50;5015787;28;20277;-74
2022/12/25 09:16:15;;;;;;;;;;;;;;;10.16;70.76;101175.81;5015923;28;20033;-74
2022/12/25 09:18:40;;;;;;;;;;;;;;;10.16;70.74;101159.59;5015684;28;19925;-74
2022/12/25 09:21:08;;;;;;;;;;;;;;;10.17;70.98;101139.66;5017123;28;20277;-74
2022/12/25 09:23:33;;;;;;;;;;;;;;;10.17;70.77;101155.84;5016007;28;19913;-74
2022/12/25 09:25:59;;;;;;;;;;;;;;;10.17;70.84;101145.03;5015569;28;20330;-74
2022/12/25 09:28:25;;;;;;;;;;;;;;;10.19;70.89;101142.13;5016956;28;20033;-74
2022/12/25 09:30:50;;;;;;;;;;;;;;;10.20;70.72;101143.75;5016735;28;19917;-74
2022/12/25 09:33:16;;;;;;;;;;;;;;;10.19;71.03;101134.03;5017138;28;19920;-75
2022/12/25 09:35:41;;;;;;;;;;;;;;;10.19;70.74;101131.31;4999201;28;20007;-74
2022/12/25 09:38:07;;;;;;;;;;;;;;;10.21;70.89;101121.13;5016811;28;20285;-74
2022/12/25 09:40:32;;;;;;;;;;;;;;;10.21;70.85;101126.53;5017005;28;20016;-76
2022/12/25 09:42:58;;;;;;;;;;;;;;;10.23;70.86;101115.47;5016541;28;19913;-74
2022/12/25 09:45:25;;;;;;;;;;;;;;;10.22;70.85;101116.53;5016417;28;19925;-74
2022/12/25 09:47:53;;;;;;;;;;;;;;;10.22;71.11;101117.38;5016441;28;19918;-74
2022/12/25 09:50:27;;;;;;;;;;;;;;;10.23;70.93;101113.63;5017061;28;19913;-74
2022/12/25 09:53:01;;;;;;;;;;;;;;;10.24;70.78;101092.84;5015427;28;19913;-74
2022/12/25 09:55:29;;;;;;;;;;;;;;;10.25;70.94;101099.88;5015825;28;19913;-74
2022/12/25 09:57:55;;;;;;;;;;;;;;;10.26;70.87;101099.66;5015329;28;19920;-74
2022/12/25 10:00:22;;;;;;;;;;;;;;;10.26;70.72;101088.03;5016347;28;19917;-75
2022/12/25 10:02:50;;;;;;;;;;;;;;;10.25;70.91;101089.91;5014884;28;20399;-74
2022/12/25 10:05:26;;;;;;;;;;;;;;;10.25;70.86;101081.78;5016066;28;19914;-74
2022/12/25 10:07:51;;;;;;;;;;;;;;;10.24;70.84;101074.75;5016386;28;20353;-74
2022/12/25 10:10:39;;;;;;;;;;;;;;;10.25;70.97;101075.59;5014784;28;19943;-74
2022/12/25 10:13:23;;;;;;;;;;;;;;;10.25;70.97;101073.69;5016075;28;20383;-75
2022/12/25 10:15:57;;;;;;;;;;;;;;;10.25;71.09;101080.97;5015904;28;19913;-74
2022/12/25 10:18:43;;;;;;;;;;;;;;;10.25;71.01;101078.28;5015192;28;19913;-75
2022/12/25 10:21:11;;;;;;;;;;;;;;;10.27;71.04;101089.69;5016259;28;19913;-75
2022/12/25 10:23:41;;;;;;;;;;;;;;;10.26;71.07;101099.66;5014957;28;19963;-76
2022/12/25 10:26:17;;;;;;;;;;;;;;;10.26;71.26;101105.06;5014728;28;19953;-75
2022/12/25 10:28:48;;;;;;;;;;;;;;;10.28;70.93;101091.34;5015309;28;20263;-81
2022/12/25 10:31:16;;;;;;;;;;;;;;;10.27;70.96;101095.88;5014173;28;19914;-75
2022/12/25 10:33:41;;;;;;;;;;;;;;;10.29;71.00;101087.59;5016005;28;19979;-75
2022/12/25 10:36:08;;;;;;;;;;;;;;;10.28;70.93;101094.88;5013781;28;19913;-76
2022/12/25 10:38:35;;;;;;;;;;;;;;;10.29;70.99;101091.13;5014243;28;19917;-76
2022/12/25 10:41:19;;;;;;;;;;;;;;;10.29;71.08;101076.81;5015295;28;19917;-75
2022/12/25 10:43:51;;;;;;;;;;;;;;;10.30;70.87;101075.72;5015301;28;19913;-80
2022/12/25 10:46:17;;;;;;;;;;;;;;;10.31;70.97;101061.19;5015543;28;19913;-75
2022/12/25 10:48:46;;;;;;;;;;;;;;;10.31;71.02;101056.63;5014901;28;19971;-75
2022/12/25 10:51:11;;;;;;;;;;;;;;;10.31;71.08;101059.31;5015235;28;19917;-78
2022/12/25 10:53:41;;;;;;;;;;;;;;;10.31;70.98;101040.41;5015101;28;20297;-77
2022/12/25 10:56:07;;;;;;;;;;;;;;;10.32;71.16;101033.13;5013990;28;19909;-76
2022/12/25 10:58:32;;;;;;;;;;;;;;;10.33;71.05;101024.81;5014982;28;19920;-76
2022/12/25 11:01:02;;;;;;;;;;;;;;;10.35;70.93;101016.44;5013965;28;19967;-75
2022/12/25 11:03:39;;;;;;;;;;;;;;;10.35;71.07;101019.16;5015005;28;19980;-75
2022/12/25 11:06:05;;;;;;;;;;;;;;;10.34;71.09;101018.34;5013387;28;19920;-75
2022/12/25 11:08:32;;;;;;;;;;;;;;;10.35;71.37;101019.16;5013545;28;19974;-75
2022/12/25 11:10:57;;;;;;;;;;;;;;;10.35;70.94;101009.16;5014879;28;20009;-76
2022/12/25 11:13:24;;;;;;;;;;;;;;;10.35;70.89;100995.66;5014859;28;19997;-76
2022/12/25 11:15:59;;;;;;;;;;;;;;;10.35;71.04;100990.25;5012808;28;20059;-78
2022/12/25 11:18:29;;;;;;;;;;;;;;;10.36;71.00;100988.41;5014849;28;19920;-76
2022/12/25 11:20:55;;;;;;;;;;;;;;;10.36;71.10;100991.94;5013705;28;19936;-78
2022/12/25 11:23:21;;;;;;;;;;;;;;;10.37;70.99;100982.75;5014581;28;19956;-74
2022/12/25 11:25:54;;;;;;;;;;;;;;;10.37;71.09;100965.75;5014643;28;19914;-75
2022/12/25 11:28:19;;;;;;;;;;;;;;;10.37;71.09;100977.34;5013618;28;19917;-76
2022/12/25 11:30:48;;;;;;;;;;;;;;;10.38;71.15;100980.88;5014256;28;20342;-76
2022/12/25 11:33:14;;;;;;;;;;;;;;;10.37;70.96;100985.47;5014333;28;20016;-75
2022/12/25 11:35:46;;;;;;;;;;;;;;;10.39;71.02;100974.44;5014747;28;19933;-76
2022/12/25 11:38:11;;;;;;;;;;;;;;;10.39;70.95;100969.84;5013795;28;19914;-75
2022/12/25 11:40:43;;;;;;;;;;;;;;;10.40;71.03;100974.19;5013302;28;20360;-77
2022/12/25 11:43:17;;;;;;;;;;;;;;;10.42;70.93;100970.44;5012719;28;19914;-80
2022/12/25 11:46:05;;;;;;;;;;;;;;;10.42;71.14;100960.44;5014257;28;19913;-75
2022/12/25 11:48:33;;;;;;;;;;;;;;;10.42;71.10;100955.06;5004157;28;20013;-75
2022/12/25 11:51:01;;;;;;;;;;;;;;;10.42;71.13;100960.44;5013986;28;19914;-76
2022/12/25 11:53:30;;;;;;;;;;;;;;;10.43;71.03;100948.59;5012705;28;20293;-76
2022/12/25 11:55:58;;;;;;;;;;;;;;;10.43;71.11;100955.88;5013945;28;20409;-75
2022/12/25 11:58:27;;;;;;;;;;;;;;;10.44;71.12;100965.63;5014139;28;19963;-75
2022/12/25 12:00:54;;;;;;;;;;;;;;;10.45;70.99;100956.47;5013555;28;19914;-79
2022/12/25 12:03:22;;;;;;;;;;;;;;;10.45;70.92;100954.56;5013028;28;19914;-75
2022/12/25 12:06:11;;;;;;;;;;;;;;;10.46;71.08;100953.53;5013478;28;20491;-75
2022/12/25 12:08:37;;;;;;;;;;;;;;;10.45;70.90;100949.16;4994562;28;20075;-75
2022/12/25 12:11:14;;;;;;;;;;;;;;;10.45;70.97;100946.47;5012587;28;19918;-75
2022/12/25 12:13:58;;;;;;;;;;;;;;;10.46;70.92;100937.34;5012293;28;19920;-75
2022/12/25 12:16:23;;;;;;;;;;;;;;;10.46;71.12;100925.69;5013895;28;19913;-75
2022/12/25 12:18:49;;;;;;;;;;;;;;;10.46;71.07;100923.81;5012974;28;19924;-74
2022/12/25 12:21:20;;;;;;;;;;;;;;;10.47;70.99;100916.53;5012771;28;19923;-74
2022/12/25 12:23:50;;;;;;;;;;;;;;;10.47;71.05;100911.94;5013783;28;19935;-74
2022/12/25 12:26:23;;;;;;;;;;;;;;;10.48;70.99;100913.63;5014333;28;20067;-74
2022/12/25 12:28:51;;;;;;;;;;;;;;;10.47;70.73;100917.34;5017791;28;19913;-74
2022/12/25 12:31:16;;;;;;;;;;;;;;;10.48;70.96;100908.22;5017880;28;19913;-77
2022/12/25 12:33:47;;;;;;;;;;;;;;;10.49;70.87;100909.03;5017437;28;19920;-74
2022/12/25 12:36:13;;;;;;;;;;;;;;;10.49;70.87;100904.44;5017493;28;19913;-74
2022/12/25 12:38:42;;;;;;;;;;;;;;;10.49;71.02;100896.34;5016297;28;19914;-75
2022/12/25 12:41:08;;;;;;;;;;;;;;;10.49;70.96;100899.03;5016335;28;19924;-77
2022/12/25 12:43:37;;;;;;;;;;;;;;;10.51;70.93;100904.22;5017282;28;20020;-74
2022/12/25 12:46:13;;;;;;;;;;;;;;;10.50;71.06;100910.66;5016509;28;20032;-74
2022/12/25 12:48:41;;;;;;;;;;;;;;;10.52;71.09;100903.13;5017277;28;19918;-75
2022/12/25 12:51:08;;;;;;;;;;;;;;;10.52;71.01;100909.34;5017199;28;19959;-74
2022/12/25 12:53:35;;;;;;;;;;;;;;;10.52;71.00;100900.44;5017424;28;19920;-75
2022/12/25 12:56:10;;;;;;;;;;;;;;;10.52;71.05;100898.56;5017188;28;19967;-74
2022/12/25 12:58:37;;;;;;;;;;;;;;;10.53;70.83;100907.47;4999327;28;20381;-74
2022/12/25 13:01:20;;;;;;;;;;;;;;;10.53;70.90;100908.31;5017070;28;19920;-74
2022/12/25 13:03:48;;;;;;;;;;;;;;;10.53;70.94;100902.06;5015656;28;19919;-74
2022/12/25 13:06:16;;;;;;;;;;;;;;;10.53;70.77;100894.81;5016881;28;19960;-76
2022/12/25 13:09:00;;;;;;;;;;;;;;;10.55;70.95;100891.84;5016782;28;19975;-74
2022/12/25 13:11:28;;;;;;;;;;;;;;;10.55;70.57;100872.94;5016910;28;19913;-73
2022/12/25 13:13:55;;;;;;;;;;;;;;;10.55;70.99;100862.16;5015456;28;19913;-78
2022/12/25 13:16:30;;;;;;;;;;;;;;;10.55;70.86;100860.25;5016663;28;19937;-74
2022/12/25 13:18:56;;;;;;;;;;;;;;;10.56;70.88;100847.59;5016837;28;20008;-74
2022/12/25 13:21:25;;;;;;;;;;;;;;;10.56;70.87;100850.31;5016067;28;20022;-75
2022/12/25 13:23:55;;;;;;;;;;;;;;;10.57;70.77;100846.53;5015702;28;19924;-74
2022/12/25 13:26:20;;;;;;;;;;;;;;;10.57;70.87;100839.25;5016236;28;19968;-75
2022/12/25 13:28:46;;;;;;;;;;;;;;;10.57;70.78;100831.13;5016836;28;20321;-75
2022/12/25 13:31:14;;;;;;;;;;;;;;;10.58;70.83;100831.94;5016529;28;19920;-75
2022/12/25 13:33:40;;;;;;;;;;;;;;;10.59;70.87;100836.31;5015953;28;19913;-75
2022/12/25 13:36:10;;;;;;;;;;;;;;;10.59;70.87;100836.31;5016615;28;19921;-75
2022/12/25 13:38:36;;;;;;;;;;;;;;;10.60;70.83;100840.63;5014528;28;20332;-75
2022/12/25 13:43:46;;;;;;;;;;;;;;;10.61;70.83;100828.78;5015826;28;20364;-75
2022/12/25 13:46:12;;;;;;;;;;;;;;;10.60;70.90;100833.34;5016441;28;19929;-76
2022/12/25 13:48:37;;;;;;;;;;;;;;;10.61;70.96;100826.09;5015276;28;19921;-75
2022/12/25 13:51:03;;;;;;;;;;;;;;;10.63;70.94;100828.53;5015044;28;19925;-78
2022/12/25 13:53:28;;;;;;;;;;;;;;;10.62;70.89;100827.72;5016411;28;19914;-76
2022/12/25 13:55:54;;;;;;;;;;;;;;;10.63;70.78;100823.94;5016478;28;19914;-75
2022/12/25 13:58:28;;;;;;;;;;;;;;;10.64;70.80;100824.78;5014263;28;19921;-75
2022/12/25 14:00:55;;;;;;;;;;;;;;;10.64;70.86;100814.78;5014796;28;19967;-75
2022/12/25 14:03:22;;;;;;;;;;;;;;;10.64;71.00;100814.78;5015791;28;20021;-74
2022/12/25 14:05:54;;;;;;;;;;;;;;;10.64;70.71;100806.69;5015848;28;19948;-76
2022/12/25 14:08:22;;;;;;;;;;;;;;;10.65;70.95;100807.50;5014668;28;20324;-74
2022/12/25 14:10:49;;;;;;;;;;;;;;;10.66;70.94;100803.72;5014753;28;19913;-74
2022/12/25 14:13:15;;;;;;;;;;;;;;;10.66;70.79;100811.84;5015703;28;19952;-74
2022/12/25 14:15:42;;;;;;;;;;;;;;;10.66;70.75;100811.84;5014163;28;19961;-75
2022/12/25 14:18:17;;;;;;;;;;;;;;;10.66;70.83;100828.88;5015514;28;20389;-75
2022/12/25 14:20:55;;;;;;;;;;;;;;;10.67;71.07;100832.41;5015163;28;20340;-74
2022/12/25 14:23:21;;;;;;;;;;;;;;;10.67;70.82;100821.59;5015427;28;19940;-76
2022/12/25 14:25:46;;;;;;;;;;;;;;;10.68;70.88;100825.94;5014605;28;20273;-75
2022/12/25 14:28:17;;;;;;;;;;;;;;;10.68;70.97;100825.94;4997576;28;20358;-75
2022/12/25 14:30:42;;;;;;;;;;;;;;;10.69;70.95;100832.97;5015305;28;19936;-74